KTLH/TLH METAR and TAF weather

Enter ICAO airport designator
Station Type Date Time Source
KTLH METAR 2020/01/20 18:53 UTC NOAA

KTLH 201853Z 33012KT 10SM FEW160 09/M05 A3027 RMK AO2 SLP252 T00891050


Station Type Date Time Source
KTLH Decoded METAR 2020/01/20 18:53 UTC NOAA

TALLAHASSEE REGIONAL AIRPORT , FL, United States (KTLH) 30-24N 84-21W 16M
Jan 20, 2020 - 01:53 PM EST / 2020.01.20 1853 UTC
Wind: from the NNW (330 degrees) at 14 MPH (12 KT):0
Visibility: 10 mile(s):0
Sky conditions: mostly clear
Temperature: 48.0 F (8.9 C)
Dew Point: 23.0 F (-5.0 C)
Relative Humidity: 36%
Pressure (altimeter): 30.27 in. Hg (1025 hPa)
ob: KTLH 201853Z 33012KT 10SM FEW160 09/M05 A3027 RMK AO2 SLP252 T00891050
cycle: 19

Station Type Date Time Source
KTLH TAF 2020/01/20 18:21 UTC NOAA

TAF KTLH 201720Z 2018/2118 35009KT P6SM FEW150
FM210000 VRB03KT P6SM SKC

Example: see airport list